createdAt,value
2019-04-07T00:01:25.148Z,4.00
2019-04-07T00:03:53.782Z,4.50
2019-04-07T00:06:22.613Z,4.60
2019-04-07T00:08:51.231Z,4.80
2019-04-07T00:11:20.041Z,5.00
2019-04-07T00:13:48.569Z,5.20
2019-04-07T00:16:17.844Z,5.20
2019-04-07T00:18:47.082Z,5.20
2019-04-07T00:21:15.548Z,5.20
2019-04-07T00:23:44.170Z,5.10
2019-04-07T00:26:12.815Z,5.10
2019-04-07T00:28:42.059Z,5.10
2019-04-07T00:31:10.729Z,5.00
2019-04-07T00:33:39.250Z,5.00
2019-04-07T00:36:08.285Z,5.10
2019-04-07T00:38:37.267Z,5.20
2019-04-07T00:41:05.989Z,5.10
2019-04-07T00:43:34.460Z,5.10
2019-04-07T00:46:03.503Z,5.10
2019-04-07T00:48:32.154Z,5.10
2019-04-07T00:51:00.670Z,5.10
2019-04-07T00:53:29.947Z,5.20
2019-04-07T00:55:59.483Z,5.20
2019-04-07T00:58:28.156Z,5.20
2019-04-07T01:00:57.438Z,5.20
2019-04-07T01:03:26.035Z,5.20
2019-04-07T01:05:54.580Z,5.20
2019-04-07T01:08:23.133Z,5.30
2019-04-07T01:10:52.440Z,5.40
2019-04-07T01:13:21.071Z,5.40
2019-04-07T01:15:49.617Z,5.40
2019-04-07T01:18:18.222Z,5.50
2019-04-07T01:20:46.873Z,5.40
2019-04-07T01:23:16.010Z,5.40
2019-04-07T01:25:44.742Z,5.30
2019-04-07T01:28:13.289Z,5.20
2019-04-07T01:30:42.584Z,5.20
2019-04-07T01:33:11.725Z,5.20
2019-04-07T01:35:47.940Z,5.20
2019-04-07T01:38:10.564Z,5.10
2019-04-07T01:40:39.966Z,5.10
2019-04-07T01:43:26.611Z,5.10
2019-04-07T01:46:06.335Z,5.00
2019-04-07T01:48:36.853Z,5.10
2019-04-07T01:51:10.369Z,5.10
2019-04-07T01:53:57.376Z,5.00
2019-04-07T01:56:31.166Z,5.10
2019-04-07T01:59:16.764Z,5.00
2019-04-07T02:01:48.097Z,5.10
2019-04-07T02:04:18.379Z,5.00
2019-04-07T02:06:55.365Z,5.10
2019-04-07T02:09:28.980Z,5.10
2019-04-07T02:12:02.690Z,5.10
2019-04-07T02:14:33.584Z,5.00
2019-04-07T02:17:13.108Z,5.00
2019-04-07T02:19:43.357Z,5.00
2019-04-07T02:22:13.654Z,5.00
2019-04-07T02:24:52.822Z,5.20
2019-04-07T02:27:26.429Z,5.20
2019-04-07T02:30:12.911Z,5.10
2019-04-07T02:32:44.029Z,5.10
2019-04-07T02:35:31.872Z,5.10
2019-04-07T02:38:02.357Z,5.10
2019-04-07T02:40:33.023Z,5.20
2019-04-07T02:43:03.352Z,5.10
2019-04-07T02:45:34.396Z,5.00
2019-04-07T02:48:05.148Z,4.90
2019-04-07T02:50:41.083Z,4.90
2019-04-07T02:53:14.835Z,4.80
2019-04-07T02:55:48.434Z,4.70
2019-04-07T02:58:25.466Z,4.70
2019-04-07T03:01:04.682Z,4.80
2019-04-07T03:03:51.123Z,4.90
2019-04-07T03:06:37.448Z,4.90
2019-04-07T03:09:03.526Z,5.00
2019-04-07T03:11:52.448Z,5.00
2019-04-07T03:14:26.285Z,5.00
2019-04-07T03:17:08.617Z,5.00
2019-04-07T03:19:45.237Z,5.00
2019-04-07T03:22:27.949Z,5.10
2019-04-07T03:25:06.666Z,5.10
2019-04-07T03:27:40.389Z,5.10
2019-04-07T03:30:11.428Z,5.00
2019-04-07T03:32:54.059Z,5.00
2019-04-07T03:35:26.009Z,4.90
2019-04-07T03:37:55.054Z,4.90
2019-04-07T03:40:28.042Z,4.90
2019-04-07T03:43:01.602Z,4.90
2019-04-07T03:45:32.543Z,4.90
2019-04-07T03:48:19.422Z,4.80
2019-04-07T03:50:52.756Z,4.80
2019-04-07T03:53:32.368Z,4.90
2019-04-07T03:56:18.726Z,4.80
2019-04-07T03:58:49.422Z,4.60
2019-04-07T04:01:19.649Z,4.60
2019-04-07T04:04:06.070Z,4.40
2019-04-07T04:06:53.448Z,4.40
2019-04-07T04:09:44.031Z,4.30
2019-04-07T04:12:24.491Z,4.20
2019-04-07T04:14:57.530Z,4.10
2019-04-07T04:17:27.015Z,4.10
2019-04-07T04:19:55.813Z,4.10
2019-04-07T04:22:24.580Z,4.00
2019-04-07T04:24:53.490Z,4.00
2019-04-07T04:27:22.284Z,4.00
2019-04-07T04:29:52.057Z,4.20
2019-04-07T04:32:21.978Z,4.30
2019-04-07T04:34:51.371Z,4.40
2019-04-07T04:37:34.626Z,4.40
2019-04-07T04:39:50.993Z,4.40
2019-04-07T04:42:20.451Z,4.40
2019-04-07T04:44:49.004Z,4.30
2019-04-07T04:47:17.611Z,4.40
2019-04-07T04:49:46.132Z,4.50
2019-04-07T04:52:15.603Z,4.50
2019-04-07T04:54:45.184Z,4.50
2019-04-07T04:57:14.291Z,4.40
2019-04-07T04:59:42.989Z,4.00
2019-04-07T05:02:12.208Z,3.90
2019-04-07T05:04:41.840Z,3.90
2019-04-07T05:07:11.220Z,4.10
2019-04-07T05:09:46.201Z,4.20
2019-04-07T05:12:10.160Z,4.20
2019-04-07T05:14:38.828Z,4.20
2019-04-07T05:17:09.980Z,4.10
2019-04-07T05:19:39.107Z,4.10
2019-04-07T05:22:08.761Z,4.20
2019-04-07T05:24:37.663Z,4.20
2019-04-07T05:27:06.432Z,4.30
2019-04-07T05:29:35.630Z,4.50
2019-04-07T05:32:04.580Z,5.50
2019-04-07T05:34:33.380Z,7.30
2019-04-07T05:37:02.253Z,8.70
2019-04-07T05:39:31.709Z,9.60
2019-04-07T05:42:00.434Z,10.10
2019-04-07T05:44:29.059Z,11.00
2019-04-07T05:46:58.195Z,11.60
2019-04-07T05:49:27.120Z,11.90
2019-04-07T05:51:55.655Z,12.60
2019-04-07T05:54:24.933Z,13.20
2019-04-07T05:56:54.079Z,13.50
2019-04-07T05:59:23.659Z,13.00
2019-04-07T06:01:58.408Z,11.80
2019-04-07T06:04:22.502Z,11.30
2019-04-07T06:06:53.533Z,11.10
2019-04-07T06:09:21.284Z,11.60
2019-04-07T06:11:49.847Z,10.90
2019-04-07T06:14:18.327Z,11.70
2019-04-07T06:16:47.047Z,12.80
2019-04-07T06:19:17.037Z,12.70
2019-04-07T06:21:47.302Z,11.90
2019-04-07T06:24:15.895Z,11.80
2019-04-07T06:26:48.163Z,12.40
2019-04-07T06:29:14.960Z,12.90
2019-04-07T06:31:43.785Z,13.70
2019-04-07T06:34:14.153Z,13.40
2019-04-07T06:36:43.127Z,13.50
2019-04-07T06:39:13.572Z,13.40
2019-04-07T06:41:42.401Z,13.00
2019-04-07T06:44:13.838Z,12.10
2019-04-07T06:46:52.461Z,13.40
2019-04-07T06:49:22.938Z,13.30
2019-04-07T06:51:55.671Z,12.40
2019-04-07T06:54:32.055Z,12.30
2019-04-07T06:57:12.225Z,12.90
2019-04-07T06:59:59.007Z,13.20
2019-04-07T07:02:45.618Z,13.70
2019-04-07T07:05:18.920Z,12.50
2019-04-07T07:07:49.863Z,12.50
2019-04-07T07:10:28.868Z,13.70
2019-04-07T07:12:59.172Z,13.20
2019-04-07T07:15:36.417Z,12.80
2019-04-07T07:18:08.018Z,12.00
2019-04-07T07:20:53.850Z,13.00
2019-04-07T07:23:28.598Z,11.90
2019-04-07T07:26:00.961Z,11.30
2019-04-07T07:28:28.310Z,12.00
2019-04-07T07:30:57.039Z,11.80
2019-04-07T07:33:25.641Z,11.40
2019-04-07T07:35:54.392Z,12.50
2019-04-07T07:38:23.530Z,12.20
2019-04-07T07:40:52.628Z,11.80
2019-04-07T07:43:21.905Z,11.00
2019-04-07T07:45:51.266Z,11.40
2019-04-07T07:48:20.827Z,12.00
2019-04-07T07:50:50.183Z,11.30
2019-04-07T07:53:21.906Z,12.00
2019-04-07T07:55:49.681Z,12.00
2019-04-07T07:58:18.395Z,12.30
2019-04-07T08:00:47.025Z,12.10
2019-04-07T08:03:15.637Z,12.60
2019-04-07T08:05:44.306Z,12.80
2019-04-07T08:08:14.986Z,12.30
2019-04-07T08:10:43.075Z,12.40
2019-04-07T08:13:11.739Z,13.00
2019-04-07T08:15:40.475Z,13.30
2019-04-07T08:18:09.704Z,13.20
2019-04-07T08:20:38.481Z,13.20
2019-04-07T08:23:07.879Z,12.90
2019-04-07T08:25:36.889Z,13.00
2019-04-07T08:28:06.434Z,13.90
2019-04-07T08:30:34.994Z,14.10
2019-04-07T08:33:03.622Z,13.90
2019-04-07T08:35:35.694Z,14.30
2019-04-07T08:38:03.371Z,14.90
2019-04-07T08:40:32.669Z,15.40
2019-04-07T08:43:01.392Z,14.60
2019-04-07T08:45:32.428Z,13.70
2019-04-07T08:48:00.790Z,14.50
2019-04-07T08:50:29.809Z,15.10
2019-04-07T08:52:59.024Z,15.40
2019-04-07T08:55:28.314Z,13.90
2019-04-07T08:58:00.117Z,15.40
2019-04-07T09:00:29.408Z,14.70
2019-04-07T09:03:03.092Z,14.80
2019-04-07T09:05:31.074Z,15.60
2019-04-07T09:07:59.391Z,15.90
2019-04-07T09:10:35.698Z,15.00
2019-04-07T09:13:07.759Z,16.40
2019-04-07T09:15:36.884Z,16.20
2019-04-07T09:18:17.146Z,14.70
2019-04-07T09:20:49.300Z,15.50
2019-04-07T09:23:20.114Z,16.80
2019-04-07T09:26:11.592Z,16.40
2019-04-07T09:28:40.477Z,15.60
2019-04-07T09:31:17.585Z,15.60
2019-04-07T09:33:53.969Z,16.20
2019-04-07T09:36:40.802Z,15.40
2019-04-07T09:39:20.244Z,15.30
2019-04-07T09:42:06.604Z,16.70
2019-04-07T09:44:37.749Z,15.80
2019-04-07T09:47:20.090Z,16.40
2019-04-07T09:49:59.449Z,15.80
2019-04-07T09:52:43.541Z,14.60
2019-04-07T09:55:24.308Z,16.00
2019-04-07T09:57:54.859Z,16.20
2019-04-07T10:00:32.073Z,16.30
2019-04-07T10:03:12.696Z,16.20
2019-04-07T10:05:43.241Z,16.70
2019-04-07T10:08:32.833Z,17.10
2019-04-07T10:11:14.822Z,16.70
2019-04-07T10:14:00.032Z,17.00
2019-04-07T10:16:33.103Z,16.60
2019-04-07T10:19:03.131Z,15.70
2019-04-07T10:21:33.514Z,16.50
2019-04-07T10:24:03.730Z,16.70
2019-04-07T10:26:50.174Z,17.00
2019-04-07T10:29:23.106Z,16.70
2019-04-07T10:32:06.279Z,16.20
2019-04-07T10:34:46.009Z,17.40
2019-04-07T10:37:26.581Z,17.60
2019-04-07T10:40:03.134Z,16.60
2019-04-07T10:42:37.007Z,17.00
2019-04-07T10:45:09.183Z,17.60
2019-04-07T10:47:55.099Z,17.40
2019-04-07T10:50:40.753Z,16.10
2019-04-07T10:53:11.432Z,16.30
2019-04-07T10:55:57.681Z,17.00
2019-04-07T10:58:43.941Z,16.80
2019-04-07T11:01:20.984Z,17.00
2019-04-07T11:03:57.663Z,16.80
2019-04-07T11:06:28.396Z,16.50
2019-04-07T11:08:58.997Z,15.90
2019-04-07T11:11:29.257Z,16.00
2019-04-07T11:14:11.544Z,16.20
2019-04-07T11:16:48.492Z,16.70
2019-04-07T11:19:18.785Z,16.50
2019-04-07T11:24:52.728Z,16.20
2019-04-07T11:27:32.069Z,16.50
2019-04-07T11:30:08.183Z,17.00
2019-04-07T11:32:38.604Z,16.80
2019-04-07T11:35:09.424Z,16.50
2019-04-07T11:37:48.490Z,17.10
2019-04-07T11:40:41.958Z,17.40
2019-04-07T11:43:15.749Z,17.80
2019-04-07T11:46:04.629Z,17.80
2019-04-07T11:48:35.133Z,17.30
2019-04-07T11:51:15.147Z,17.10
2019-04-07T11:53:48.197Z,17.60
2019-04-07T11:56:25.027Z,17.70
2019-04-07T11:59:01.566Z,16.70
2019-04-07T12:01:49.463Z,15.50
2019-04-07T12:04:24.188Z,15.90
2019-04-07T12:07:11.173Z,16.40
2019-04-07T12:09:47.739Z,15.60
2019-04-07T12:12:36.087Z,15.70
2019-04-07T12:15:09.542Z,17.20
2019-04-07T12:17:43.550Z,16.80
2019-04-07T12:20:33.731Z,16.50
2019-04-07T12:23:05.953Z,16.10
2019-04-07T12:25:42.894Z,15.90
2019-04-07T12:28:21.967Z,14.90
2019-04-07T12:31:08.598Z,15.90
2019-04-07T12:33:42.092Z,15.40
2019-04-07T12:36:31.822Z,15.20
2019-04-07T12:39:12.221Z,15.60
2019-04-07T12:41:44.689Z,15.80
2019-04-07T12:44:17.932Z,16.50
2019-04-07T12:47:04.858Z,17.50
2019-04-07T12:49:44.368Z,16.90
2019-04-07T12:52:16.107Z,16.90
2019-04-07T12:54:49.127Z,14.90
2019-04-07T12:57:19.468Z,15.40
2019-04-07T13:00:06.004Z,16.30
2019-04-07T13:02:36.399Z,16.90
2019-04-07T13:05:08.753Z,16.80
2019-04-07T13:07:52.147Z,16.40
2019-04-07T13:10:22.599Z,15.40
2019-04-07T13:12:57.929Z,15.30
2019-04-07T13:15:48.315Z,15.90
2019-04-07T13:18:31.514Z,16.60
2019-04-07T13:21:08.976Z,17.10
2019-04-07T13:23:53.905Z,16.30
2019-04-07T13:26:30.432Z,15.80
2019-04-07T13:29:11.725Z,15.30
2019-04-07T13:31:56.872Z,15.20
2019-04-07T13:34:34.728Z,15.20
2019-04-07T13:37:14.528Z,15.40
2019-04-07T13:39:47.542Z,15.20
2019-04-07T13:42:25.429Z,15.10
2019-04-07T13:45:14.259Z,14.90
2019-04-07T13:47:47.010Z,14.90
2019-04-07T13:50:34.475Z,15.40
2019-04-07T13:53:13.285Z,15.40
2019-04-07T13:55:59.578Z,15.30
2019-04-07T13:58:46.551Z,14.80
2019-04-07T14:01:34.666Z,15.00
2019-04-07T14:04:08.871Z,14.60
2019-04-07T14:06:54.442Z,14.10
2019-04-07T14:09:31.453Z,14.30
2019-04-07T14:12:12.811Z,14.50
2019-04-07T14:14:49.445Z,14.50
2019-04-07T14:17:36.351Z,14.60
2019-04-07T14:20:15.009Z,14.60
2019-04-07T14:22:45.466Z,14.80
2019-04-07T14:25:24.619Z,14.20
2019-04-07T14:28:09.981Z,14.60
2019-04-07T14:30:56.611Z,15.00
2019-04-07T14:33:43.125Z,15.20
2019-04-07T14:36:17.227Z,15.70
2019-04-07T14:38:47.653Z,15.70
2019-04-07T14:41:35.702Z,15.60
2019-04-07T14:44:11.799Z,15.70
2019-04-07T14:46:57.594Z,15.30
2019-04-07T14:49:33.324Z,15.10
2019-04-07T14:52:18.885Z,15.10
2019-04-07T14:55:01.441Z,15.20
2019-04-07T14:57:32.948Z,15.20
2019-04-07T15:00:08.934Z,15.10
2019-04-07T15:02:37.424Z,15.40
2019-04-07T15:05:07.865Z,15.30
2019-04-07T15:07:44.047Z,15.40
2019-04-07T15:10:16.813Z,15.50
2019-04-07T15:12:46.827Z,15.50
2019-04-07T15:15:16.038Z,15.50
2019-04-07T15:17:45.733Z,16.30
2019-04-07T15:20:15.695Z,16.70
2019-04-07T15:22:46.107Z,16.00
2019-04-07T15:25:15.165Z,15.40
2019-04-07T15:27:44.519Z,15.50
2019-04-07T15:30:15.440Z,15.10
2019-04-07T15:32:43.885Z,15.20
2019-04-07T15:35:14.329Z,15.40
2019-04-07T15:37:44.476Z,15.50
2019-04-07T15:40:13.993Z,15.60
2019-04-07T15:42:46.015Z,15.60
2019-04-07T15:45:13.403Z,15.40
2019-04-07T15:47:42.482Z,14.80
2019-04-07T15:50:11.801Z,14.70
2019-04-07T15:52:43.729Z,15.20
2019-04-07T15:55:11.885Z,15.30
2019-04-07T15:57:40.778Z,15.40
2019-04-07T16:00:10.042Z,15.60
2019-04-07T16:02:42.147Z,15.60
2019-04-07T16:05:10.505Z,15.60
2019-04-07T16:07:39.281Z,15.50
2019-04-07T16:10:08.202Z,15.50
2019-04-07T16:12:45.128Z,15.40
2019-04-07T16:15:07.848Z,15.20
2019-04-07T16:17:37.172Z,15.20
2019-04-07T16:20:19.792Z,15.20
2019-04-07T16:22:40.109Z,15.10
2019-04-07T16:25:11.152Z,15.20
2019-04-07T16:27:39.858Z,14.80
2019-04-07T16:30:15.779Z,15.20
2019-04-07T16:32:42.887Z,15.60
2019-04-07T16:35:15.606Z,16.10
2019-04-07T16:37:43.737Z,15.60
2019-04-07T16:40:14.126Z,15.60
2019-04-07T16:42:53.842Z,15.80
2019-04-07T16:45:16.474Z,15.30
2019-04-07T16:47:43.696Z,15.00
2019-04-07T16:50:13.289Z,14.80
2019-04-07T16:52:41.972Z,14.60
2019-04-07T16:55:20.213Z,14.40
2019-04-07T16:57:50.337Z,14.20
2019-04-07T17:00:20.234Z,14.00
2019-04-07T17:02:49.248Z,13.80
2019-04-07T17:05:21.401Z,13.80
2019-04-07T17:07:48.404Z,13.70
2019-04-07T17:10:17.398Z,13.60
2019-04-07T17:12:46.028Z,13.60
2019-04-07T17:15:15.462Z,13.30
2019-04-07T17:17:44.195Z,13.10
2019-04-07T17:20:13.523Z,12.90
2019-04-07T17:22:45.908Z,12.70
2019-04-07T17:25:12.561Z,12.50
2019-04-07T17:27:42.597Z,12.30
2019-04-07T17:30:17.766Z,12.10
2019-04-07T17:32:46.939Z,11.80
2019-04-07T17:35:17.528Z,11.40
2019-04-07T17:37:47.339Z,11.20
2019-04-07T17:40:18.482Z,11.00
2019-04-07T17:42:51.679Z,10.90
2019-04-07T17:45:36.100Z,10.90
2019-04-07T17:48:25.503Z,11.00
2019-04-07T17:50:56.464Z,10.80
2019-04-07T17:53:37.277Z,10.70
2019-04-07T17:56:22.304Z,10.80
2019-04-07T17:58:58.733Z,10.60
2019-04-07T18:01:33.089Z,10.50
2019-04-07T18:04:21.780Z,10.40
2019-04-07T18:06:55.033Z,10.30
2019-04-07T18:09:42.187Z,10.10
2019-04-07T18:12:30.682Z,9.90
2019-04-07T18:15:17.922Z,9.70
2019-04-07T18:18:02.173Z,9.70
2019-04-07T18:20:42.531Z,9.70
2019-04-07T18:23:13.099Z,9.60
2019-04-07T18:25:43.351Z,9.60
2019-04-07T18:28:14.368Z,9.60
2019-04-07T18:31:05.333Z,9.60
2019-04-07T18:33:38.345Z,9.50
2019-04-07T18:36:09.143Z,9.40
2019-04-07T18:38:54.928Z,9.30
2019-04-07T18:41:36.087Z,9.30
2019-04-07T18:44:09.393Z,9.30
2019-04-07T18:46:52.751Z,9.20
2019-04-07T18:49:23.942Z,9.10
2019-04-07T18:52:01.487Z,9.00
2019-04-07T18:54:41.227Z,8.90
2019-04-07T18:57:23.908Z,8.90
2019-04-07T19:00:01.147Z,8.80
2019-04-07T19:02:46.457Z,8.70
2019-04-07T19:05:22.147Z,8.70
2019-04-07T19:07:52.916Z,8.70
2019-04-07T19:10:39.578Z,8.70
2019-04-07T19:13:17.110Z,8.70
2019-04-07T19:15:51.329Z,8.70
2019-04-07T19:18:40.195Z,8.70
2019-04-07T19:21:18.809Z,8.70
2019-04-07T19:23:51.599Z,8.70
2019-04-07T19:26:27.851Z,8.70
2019-04-07T19:29:09.181Z,8.80
2019-04-07T19:31:43.715Z,8.70
2019-04-07T19:34:17.296Z,8.70
2019-04-07T19:36:48.220Z,8.60
2019-04-07T19:39:21.428Z,8.60
2019-04-07T19:41:56.340Z,8.70
2019-04-07T19:44:42.860Z,8.60
2019-04-07T19:47:14.159Z,8.50
2019-04-07T19:49:45.237Z,8.50
2019-04-07T19:52:43.097Z,8.50
2019-04-07T19:55:14.219Z,8.50
2019-04-07T19:57:44.922Z,8.50
2019-04-07T20:00:26.596Z,8.60
2019-04-07T20:03:07.671Z,8.60
2019-04-07T20:05:53.410Z,8.50
2019-04-07T20:08:37.442Z,8.40
2019-04-07T20:11:07.788Z,8.50
2019-04-07T20:13:40.624Z,8.50
2019-04-07T20:16:28.272Z,8.60
2019-04-07T20:18:59.660Z,8.60
2019-04-07T20:21:53.367Z,8.60
2019-04-07T20:24:21.797Z,8.70
2019-04-07T20:26:59.026Z,8.90
2019-04-07T20:32:37.434Z,9.00
2019-04-07T20:35:12.292Z,9.10
2019-04-07T20:37:59.825Z,9.10
2019-04-07T20:40:36.252Z,9.10
2019-04-07T20:43:10.159Z,9.10
2019-04-07T20:45:50.051Z,9.10
2019-04-07T20:48:21.276Z,9.20
2019-04-07T20:51:08.412Z,9.30
2019-04-07T20:53:39.560Z,9.50
2019-04-07T20:56:21.762Z,9.60
2019-04-07T20:58:59.390Z,9.70
2019-04-07T21:01:36.554Z,9.80
2019-04-07T21:04:06.862Z,9.70
2019-04-07T21:06:40.702Z,9.70
2019-04-07T21:09:23.577Z,9.80
2019-04-07T21:11:59.157Z,9.70
2019-04-07T21:14:45.860Z,9.80
2019-04-07T21:17:28.778Z,9.70
2019-04-07T21:20:08.281Z,9.70
2019-04-07T21:22:37.377Z,9.60
2019-04-07T21:25:11.675Z,9.50
2019-04-07T21:27:42.717Z,9.40
2019-04-07T21:30:15.068Z,9.30
2019-04-07T21:32:57.208Z,9.10
2019-04-07T21:35:36.710Z,9.00
2019-04-07T21:38:10.156Z,8.80
2019-04-07T21:40:50.129Z,8.70
2019-04-07T21:43:24.288Z,8.70
2019-04-07T21:45:58.388Z,8.70
2019-04-07T21:48:45.457Z,8.60
2019-04-07T21:51:33.166Z,8.70
2019-04-07T21:54:04.012Z,8.80
2019-04-07T21:56:44.908Z,8.90
2019-04-07T21:59:21.506Z,9.10
2019-04-07T22:01:51.810Z,9.10
2019-04-07T22:04:31.488Z,9.10
2019-04-07T22:07:04.827Z,9.00
2019-04-07T22:09:35.062Z,8.90
2019-04-07T22:12:03.650Z,8.80
2019-04-07T22:14:32.395Z,8.70
2019-04-07T22:17:02.921Z,8.60
2019-04-07T22:19:31.902Z,8.60
2019-04-07T22:22:00.710Z,8.50
2019-04-07T22:24:35.870Z,8.40
2019-04-07T22:27:05.306Z,8.30
2019-04-07T22:29:34.963Z,8.20
2019-04-07T22:32:03.667Z,8.10
2019-04-07T22:34:32.781Z,8.00
2019-04-07T22:37:02.599Z,7.90
2019-04-07T22:39:32.117Z,7.90
2019-04-07T22:42:02.227Z,7.90
2019-04-07T22:44:31.435Z,7.90
2019-04-07T22:46:59.976Z,7.90
2019-04-07T22:49:30.827Z,7.90
2019-04-07T22:51:58.754Z,7.90
2019-04-07T22:54:29.508Z,7.80
2019-04-07T22:56:57.597Z,7.70
2019-04-07T22:59:26.149Z,7.60
2019-04-07T23:01:55.622Z,7.50
2019-04-07T23:04:24.241Z,7.40
2019-04-07T23:06:52.783Z,7.40
2019-04-07T23:09:21.857Z,7.40
2019-04-07T23:11:50.555Z,7.40
2019-04-07T23:14:19.898Z,7.40
2019-04-07T23:16:48.715Z,7.30
2019-04-07T23:19:17.403Z,7.20
2019-04-07T23:21:47.085Z,7.20
2019-04-07T23:24:15.804Z,7.30
2019-04-07T23:26:45.304Z,7.30
2019-04-07T23:29:14.228Z,7.20
2019-04-07T23:31:43.954Z,7.20
2019-04-07T23:34:12.589Z,7.10
2019-04-07T23:36:41.134Z,7.00
2019-04-07T23:39:09.938Z,7.00
2019-04-07T23:41:39.420Z,7.00
2019-04-07T23:44:08.109Z,7.00
2019-04-07T23:46:36.664Z,6.90
2019-04-07T23:49:05.776Z,6.80
2019-04-07T23:51:35.144Z,6.80
2019-04-07T23:54:11.275Z,6.80
2019-04-07T23:56:41.723Z,6.70
2019-04-07T23:59:10.724Z,6.60
